createdAt,value
2019-02-20T00:00:40.323Z,79.40
2019-02-20T00:03:08.905Z,79.90
2019-02-20T00:05:37.593Z,80.00
2019-02-20T00:08:06.273Z,79.90
2019-02-20T00:10:34.843Z,79.50
2019-02-20T00:13:03.478Z,79.60
2019-02-20T00:15:32.025Z,79.80
2019-02-20T00:18:00.593Z,81.00
2019-02-20T00:20:29.341Z,81.30
2019-02-20T00:22:57.965Z,81.70
2019-02-20T00:25:26.538Z,82.10
2019-02-20T00:27:55.269Z,81.90
2019-02-20T00:30:23.817Z,82.50
2019-02-20T00:32:52.433Z,82.10
2019-02-20T00:35:21.098Z,83.20
2019-02-20T00:37:49.725Z,83.10
2019-02-20T00:40:19.723Z,83.90
2019-02-20T00:42:48.371Z,84.10
2019-02-20T00:45:24.406Z,84.10
2019-02-20T00:48:12.493Z,83.40
2019-02-20T00:50:42.781Z,83.80
2019-02-20T00:53:31.150Z,83.50
2019-02-20T00:55:59.785Z,83.60
2019-02-20T00:58:28.370Z,83.70
2019-02-20T01:00:56.922Z,83.30
2019-02-20T01:03:25.577Z,83.60
2019-02-20T01:05:54.242Z,83.60
2019-02-20T01:08:23.003Z,83.70
2019-02-20T01:10:51.686Z,83.10
2019-02-20T01:13:20.389Z,83.10
2019-02-20T01:15:49.038Z,82.50
2019-02-20T01:18:17.745Z,82.50
2019-02-20T01:20:46.370Z,82.00
2019-02-20T01:23:15.021Z,82.10
2019-02-20T01:25:43.661Z,82.10
2019-02-20T01:28:12.263Z,82.30
2019-02-20T01:30:41.004Z,81.90
2019-02-20T01:33:09.643Z,82.20
2019-02-20T01:35:38.320Z,82.10
2019-02-20T01:38:07.036Z,81.50
2019-02-20T01:40:35.857Z,81.40
2019-02-20T01:43:04.586Z,81.10
2019-02-20T01:45:33.271Z,80.90
2019-02-20T01:48:02.030Z,81.30
2019-02-20T01:50:30.615Z,81.40
2019-02-20T01:52:59.277Z,81.50
2019-02-20T01:55:28.017Z,81.70
2019-02-20T01:57:56.767Z,81.40
2019-02-20T02:00:25.418Z,82.10
2019-02-20T02:02:54.130Z,81.60
2019-02-20T02:05:22.730Z,81.60
2019-02-20T02:07:51.452Z,82.20
2019-02-20T02:10:19.988Z,81.80
2019-02-20T02:12:48.594Z,81.80
2019-02-20T02:15:20.439Z,81.50
2019-02-20T02:17:47.623Z,82.40
2019-02-20T02:20:16.286Z,81.30
2019-02-20T02:22:44.995Z,81.30
2019-02-20T02:25:13.695Z,81.20
2019-02-20T02:27:42.275Z,80.90
2019-02-20T02:30:13.528Z,81.40
2019-02-20T02:32:42.160Z,81.10
2019-02-20T02:35:10.772Z,81.40
2019-02-20T02:37:39.357Z,81.70
2019-02-20T02:40:08.752Z,81.30
2019-02-20T02:42:37.621Z,81.10
2019-02-20T02:45:06.564Z,82.60
2019-02-20T02:47:35.275Z,81.60
2019-02-20T02:50:04.673Z,81.90
2019-02-20T02:52:33.409Z,81.40
2019-02-20T02:55:02.053Z,81.90
2019-02-20T02:57:30.675Z,81.30
2019-02-20T02:59:59.386Z,81.40
2019-02-20T03:02:28.015Z,81.40
2019-02-20T03:04:56.824Z,81.50
2019-02-20T03:07:25.444Z,82.10
2019-02-20T03:09:54.018Z,82.10
2019-02-20T03:12:22.687Z,82.20
2019-02-20T03:14:51.379Z,82.60
2019-02-20T03:17:19.934Z,82.20
2019-02-20T03:19:48.587Z,82.10
2019-02-20T03:22:17.293Z,82.40
2019-02-20T03:24:46.012Z,82.70
2019-02-20T03:27:14.555Z,82.70
2019-02-20T03:29:43.156Z,83.20
2019-02-20T03:32:11.756Z,82.80
2019-02-20T03:34:40.606Z,82.10
2019-02-20T03:37:09.189Z,82.00
2019-02-20T03:39:37.737Z,81.80
2019-02-20T03:42:06.451Z,81.20
2019-02-20T03:44:35.002Z,81.50
2019-02-20T03:47:03.760Z,81.50
2019-02-20T03:49:32.458Z,81.60
2019-02-20T03:52:01.172Z,81.90
2019-02-20T03:54:29.714Z,81.60
2019-02-20T03:56:58.399Z,81.20
2019-02-20T03:59:27.006Z,80.90
2019-02-20T04:01:55.636Z,81.40
2019-02-20T04:04:24.343Z,81.20
2019-02-20T04:06:52.930Z,81.70
2019-02-20T04:09:21.520Z,82.00
2019-02-20T04:11:50.279Z,81.80
2019-02-20T04:14:18.841Z,81.80
2019-02-20T04:16:47.381Z,81.50
2019-02-20T04:19:15.952Z,81.30
2019-02-20T04:21:44.545Z,81.00
2019-02-20T04:24:13.265Z,80.70
2019-02-20T04:26:41.884Z,81.00
2019-02-20T04:29:10.483Z,81.90
2019-02-20T04:31:39.047Z,81.40
2019-02-20T04:34:07.686Z,81.50
2019-02-20T04:36:36.443Z,81.80
2019-02-20T04:39:06.030Z,80.90
2019-02-20T04:41:34.874Z,81.20
2019-02-20T04:44:03.423Z,81.20
2019-02-20T04:46:32.127Z,80.70
2019-02-20T04:49:02.541Z,80.30
2019-02-20T04:51:31.338Z,80.90
2019-02-20T04:54:00.000Z,80.70
2019-02-20T04:56:28.689Z,81.60
2019-02-20T04:58:59.471Z,82.80
2019-02-20T05:01:28.275Z,83.50
2019-02-20T05:03:57.272Z,83.50
2019-02-20T05:06:25.921Z,83.70
2019-02-20T05:08:54.470Z,83.60
2019-02-20T05:11:23.196Z,84.10
2019-02-20T05:13:51.883Z,84.10
2019-02-20T05:16:21.100Z,84.20
2019-02-20T05:18:49.649Z,83.90
2019-02-20T05:21:18.295Z,84.30
2019-02-20T05:23:46.875Z,84.50
2019-02-20T05:26:15.537Z,84.30
2019-02-20T05:28:44.156Z,84.00
2019-02-20T05:31:12.859Z,84.00
2019-02-20T05:33:41.430Z,83.90
2019-02-20T05:36:10.107Z,84.20
2019-02-20T05:38:38.681Z,83.90
2019-02-20T05:41:07.401Z,83.70
2019-02-20T05:43:39.399Z,83.70
2019-02-20T05:46:08.107Z,84.10
2019-02-20T05:48:37.093Z,84.20
2019-02-20T05:51:05.738Z,83.90
2019-02-20T05:53:34.378Z,84.20
2019-02-20T05:56:03.011Z,84.20
2019-02-20T05:58:31.674Z,84.20
2019-02-20T06:01:00.291Z,83.90
2019-02-20T06:03:28.848Z,83.60
2019-02-20T06:05:57.487Z,83.50
2019-02-20T06:08:26.063Z,83.60
2019-02-20T06:10:54.674Z,83.60
2019-02-20T06:13:23.290Z,83.90
2019-02-20T06:15:52.677Z,83.70
2019-02-20T06:18:21.202Z,83.40
2019-02-20T06:20:50.492Z,83.60
2019-02-20T06:23:19.367Z,83.30
2019-02-20T06:25:48.041Z,83.40
2019-02-20T06:28:16.663Z,83.40
2019-02-20T06:30:45.285Z,83.00
2019-02-20T06:33:13.958Z,82.90
2019-02-20T06:35:42.591Z,83.10
2019-02-20T06:38:11.691Z,83.50
2019-02-20T06:40:40.481Z,83.80
2019-02-20T06:43:09.021Z,83.50
2019-02-20T06:45:37.659Z,83.30
2019-02-20T06:48:06.294Z,83.10
2019-02-20T06:50:34.896Z,83.00
2019-02-20T06:53:03.594Z,83.20
2019-02-20T06:55:32.096Z,83.30
2019-02-20T06:58:00.740Z,83.00
2019-02-20T07:00:29.437Z,82.70
2019-02-20T07:02:58.060Z,82.80
2019-02-20T07:05:34.727Z,82.50
2019-02-20T07:08:28.048Z,82.40
2019-02-20T07:11:05.367Z,82.10
2019-02-20T07:13:53.222Z,82.70
2019-02-20T07:16:51.602Z,82.50
2019-02-20T07:19:31.853Z,82.40
2019-02-20T07:22:06.057Z,82.30
2019-02-20T07:24:49.390Z,82.10
2019-02-20T07:27:23.458Z,81.90
2019-02-20T07:30:02.100Z,81.50
2019-02-20T07:32:31.123Z,81.30
2019-02-20T07:34:59.881Z,81.20
2019-02-20T07:37:28.609Z,82.00
2019-02-20T07:39:57.533Z,81.70
2019-02-20T07:42:26.233Z,81.60
2019-02-20T07:44:54.939Z,81.20
2019-02-20T07:47:23.533Z,81.50
2019-02-20T07:49:52.103Z,80.80
2019-02-20T07:52:20.811Z,80.60
2019-02-20T07:54:49.482Z,79.80
2019-02-20T07:57:18.075Z,79.60
2019-02-20T07:59:46.828Z,79.30
2019-02-20T08:02:15.623Z,79.00
2019-02-20T08:04:44.296Z,78.80
2019-02-20T08:07:13.267Z,78.90
2019-02-20T08:09:41.852Z,78.30
2019-02-20T08:12:10.450Z,78.70
2019-02-20T08:14:39.043Z,77.90
2019-02-20T08:17:07.790Z,77.30
2019-02-20T08:19:36.531Z,76.80
2019-02-20T08:22:05.296Z,76.30
2019-02-20T08:24:34.073Z,76.30
2019-02-20T08:27:02.708Z,75.40
2019-02-20T08:29:31.426Z,75.40
2019-02-20T08:32:02.178Z,75.10
2019-02-20T08:34:31.189Z,75.30
2019-02-20T08:36:59.888Z,75.90
2019-02-20T08:39:28.606Z,75.50
2019-02-20T08:41:57.242Z,75.00
2019-02-20T08:44:25.882Z,74.70
2019-02-20T08:46:56.231Z,74.30
2019-02-20T08:49:24.902Z,73.90
2019-02-20T08:51:53.448Z,73.00
2019-02-20T08:54:22.411Z,69.50
2019-02-20T08:56:51.172Z,66.90
2019-02-20T08:59:19.830Z,66.30
2019-02-20T09:01:48.488Z,66.60
2019-02-20T09:04:17.070Z,67.70
2019-02-20T09:06:45.807Z,67.00
2019-02-20T09:09:19.685Z,66.70
2019-02-20T09:11:49.262Z,68.50
2019-02-20T09:14:17.734Z,69.40
2019-02-20T09:16:46.377Z,71.50
2019-02-20T09:19:14.985Z,71.90
2019-02-20T09:21:43.604Z,71.70
2019-02-20T09:24:12.289Z,72.40
2019-02-20T09:26:40.950Z,72.10
2019-02-20T09:29:09.562Z,70.90
2019-02-20T09:31:38.282Z,70.60
2019-02-20T09:34:07.001Z,70.20
2019-02-20T09:36:35.773Z,70.20
2019-02-20T09:39:22.260Z,70.00
2019-02-20T09:41:50.829Z,70.10
2019-02-20T09:44:19.582Z,68.90
2019-02-20T09:46:48.285Z,67.50
2019-02-20T09:49:16.930Z,69.60
2019-02-20T09:51:45.476Z,69.60
2019-02-20T09:54:14.103Z,68.90
2019-02-20T09:56:42.691Z,68.60
2019-02-20T09:59:11.394Z,68.00
2019-02-20T10:01:40.068Z,67.20
2019-02-20T10:04:08.602Z,68.40
2019-02-20T10:06:37.298Z,69.20
2019-02-20T10:09:06.438Z,68.90
2019-02-20T10:11:35.019Z,69.00
2019-02-20T10:14:03.664Z,69.50
2019-02-20T10:16:32.225Z,69.90
2019-02-20T10:19:01.193Z,69.50
2019-02-20T10:21:30.103Z,69.00
2019-02-20T10:23:58.694Z,69.80
2019-02-20T10:26:27.358Z,68.40
2019-02-20T10:28:55.995Z,68.00
2019-02-20T10:31:24.550Z,67.20
2019-02-20T10:33:53.226Z,66.70
2019-02-20T10:36:21.899Z,66.30
2019-02-20T10:38:50.534Z,65.50
2019-02-20T10:41:19.077Z,66.70
2019-02-20T10:43:47.767Z,66.10
2019-02-20T10:46:16.482Z,65.70
2019-02-20T10:48:45.155Z,66.70
2019-02-20T10:51:13.878Z,68.50
2019-02-20T10:53:42.602Z,66.80
2019-02-20T10:56:11.267Z,66.70
2019-02-20T10:58:39.924Z,67.10
2019-02-20T11:01:08.917Z,65.90
2019-02-20T11:03:37.462Z,64.40
2019-02-20T11:06:06.075Z,61.00
2019-02-20T11:08:34.761Z,58.60
2019-02-20T11:11:03.334Z,56.10
2019-02-20T11:13:31.951Z,55.10
2019-02-20T11:16:00.498Z,54.80
2019-02-20T11:18:29.166Z,55.40
2019-02-20T11:20:57.905Z,57.00
2019-02-20T11:23:26.782Z,56.00
2019-02-20T11:25:55.335Z,56.60
2019-02-20T11:28:26.969Z,59.70
2019-02-20T11:30:54.323Z,62.70
2019-02-20T11:33:23.006Z,62.60
2019-02-20T11:35:51.619Z,62.00
2019-02-20T11:38:20.289Z,63.00
2019-02-20T11:40:49.005Z,64.80
2019-02-20T11:43:17.642Z,65.60
2019-02-20T11:45:46.359Z,65.80
2019-02-20T11:48:15.060Z,67.10
2019-02-20T11:50:43.757Z,68.20
2019-02-20T11:53:12.338Z,68.40
2019-02-20T11:55:41.138Z,67.70
2019-02-20T11:58:09.734Z,67.90
2019-02-20T12:00:38.465Z,66.90
2019-02-20T12:03:07.157Z,66.80
2019-02-20T12:05:35.906Z,67.10
2019-02-20T12:08:04.492Z,67.50
2019-02-20T12:10:33.139Z,67.50
2019-02-20T12:13:01.680Z,67.40
2019-02-20T12:15:30.610Z,67.30
2019-02-20T12:17:59.190Z,67.50
2019-02-20T12:20:27.910Z,67.40
2019-02-20T12:22:56.690Z,67.00
2019-02-20T12:25:25.246Z,67.10
2019-02-20T12:27:54.080Z,66.60
2019-02-20T12:30:22.872Z,66.50
2019-02-20T12:32:51.514Z,66.60
2019-02-20T12:35:20.201Z,67.00
2019-02-20T12:37:48.790Z,67.50
2019-02-20T12:40:17.334Z,67.90
2019-02-20T12:42:45.972Z,67.30
2019-02-20T12:45:14.604Z,67.50
2019-02-20T12:47:43.821Z,67.20
2019-02-20T12:50:13.840Z,67.30
2019-02-20T12:52:42.711Z,66.80
2019-02-20T12:55:11.469Z,67.10
2019-02-20T12:57:40.164Z,67.50
2019-02-20T13:00:12.735Z,67.20
2019-02-20T13:02:41.357Z,67.00
2019-02-20T13:05:10.381Z,65.70
2019-02-20T13:07:39.064Z,65.40
2019-02-20T13:10:09.325Z,64.80
2019-02-20T13:12:38.041Z,64.20
2019-02-20T13:15:08.867Z,63.80
2019-02-20T13:17:37.602Z,63.40
2019-02-20T13:20:08.427Z,63.00
2019-02-20T13:22:37.097Z,62.90
2019-02-20T13:25:07.241Z,61.60
2019-02-20T13:27:35.845Z,62.70
2019-02-20T13:30:07.012Z,62.80
2019-02-20T13:32:35.698Z,62.60
2019-02-20T13:35:05.324Z,62.60
2019-02-20T13:37:34.156Z,62.50
2019-02-20T13:40:02.878Z,63.40
2019-02-20T13:42:32.096Z,63.30
2019-02-20T13:45:00.649Z,62.50
2019-02-20T13:47:29.283Z,62.40
2019-02-20T13:49:57.826Z,61.70
2019-02-20T13:52:26.414Z,62.10
2019-02-20T13:54:55.066Z,61.60
2019-02-20T13:57:23.738Z,61.80
2019-02-20T13:59:52.367Z,62.20
2019-02-20T14:02:21.146Z,62.60
2019-02-20T14:04:49.850Z,62.80
2019-02-20T14:07:18.437Z,63.40
2019-02-20T14:09:46.981Z,63.00
2019-02-20T14:12:15.948Z,63.30
2019-02-20T14:14:44.505Z,63.60
2019-02-20T14:17:13.175Z,63.50
2019-02-20T14:19:41.806Z,62.80
2019-02-20T14:22:10.657Z,62.40
2019-02-20T14:24:39.234Z,62.30
2019-02-20T14:27:10.734Z,62.40
2019-02-20T14:29:38.254Z,62.40
2019-02-20T14:32:06.825Z,62.60
2019-02-20T14:34:35.470Z,62.20
2019-02-20T14:37:04.149Z,63.20
2019-02-20T14:39:32.797Z,63.60
2019-02-20T14:42:01.530Z,63.80
2019-02-20T14:44:30.486Z,63.00
2019-02-20T14:46:59.086Z,63.00
2019-02-20T14:49:27.742Z,63.20
2019-02-20T14:51:56.372Z,63.00
2019-02-20T14:54:25.237Z,63.10
2019-02-20T14:56:53.798Z,62.80
2019-02-20T14:59:22.436Z,63.80
2019-02-20T15:01:51.465Z,63.40
2019-02-20T15:04:20.190Z,63.20
2019-02-20T15:06:49.006Z,62.70
2019-02-20T15:09:17.716Z,63.10
2019-02-20T15:11:46.387Z,63.60
2019-02-20T15:14:16.203Z,63.90
2019-02-20T15:16:45.067Z,64.30
2019-02-20T15:19:13.758Z,64.50
2019-02-20T15:21:42.684Z,65.10
2019-02-20T15:24:11.363Z,64.60
2019-02-20T15:26:40.101Z,64.50
2019-02-20T15:29:08.702Z,64.40
2019-02-20T15:31:39.981Z,63.60
2019-02-20T15:34:08.813Z,64.10
2019-02-20T15:36:38.742Z,64.70
2019-02-20T15:39:08.040Z,65.30
2019-02-20T15:41:36.726Z,65.90
2019-02-20T15:44:05.502Z,66.30
2019-02-20T15:46:35.044Z,66.20
2019-02-20T15:49:04.102Z,67.20
2019-02-20T15:51:32.707Z,66.90
2019-02-20T15:54:01.610Z,66.90
2019-02-20T15:56:30.369Z,67.80
2019-02-20T15:58:58.911Z,67.20
2019-02-20T16:01:27.605Z,67.40
2019-02-20T16:03:56.298Z,68.30
2019-02-20T16:06:25.685Z,68.10
2019-02-20T16:08:54.247Z,68.50
2019-02-20T16:11:22.897Z,68.20
2019-02-20T16:13:51.570Z,68.60
2019-02-20T16:16:20.185Z,68.60
2019-02-20T16:18:48.775Z,68.50
2019-02-20T16:21:17.346Z,68.70
2019-02-20T16:23:45.959Z,69.00
2019-02-20T16:26:15.178Z,69.20
2019-02-20T16:28:43.791Z,69.00
2019-02-20T16:31:12.478Z,69.40
2019-02-20T16:33:41.302Z,69.10
2019-02-20T16:36:09.970Z,69.40
2019-02-20T16:38:38.797Z,69.20
2019-02-20T16:41:09.153Z,69.60
2019-02-20T16:43:37.781Z,69.60
2019-02-20T16:46:06.558Z,69.40
2019-02-20T16:48:35.327Z,69.70
2019-02-20T16:51:03.902Z,69.90
2019-02-20T16:53:32.554Z,70.00
2019-02-20T16:56:01.407Z,69.70
2019-02-20T16:58:30.058Z,69.60
2019-02-20T17:01:01.539Z,70.50
2019-02-20T17:03:30.370Z,70.00
2019-02-20T17:05:58.917Z,70.20
2019-02-20T17:08:27.650Z,70.10
2019-02-20T17:10:58.736Z,70.70
2019-02-20T17:13:27.000Z,70.60
2019-02-20T17:15:55.674Z,71.20
2019-02-20T17:18:27.171Z,71.20
2019-02-20T17:20:56.002Z,71.40
2019-02-20T17:23:24.655Z,71.20
2019-02-20T17:25:53.574Z,71.10
2019-02-20T17:28:22.289Z,71.30
2019-02-20T17:30:51.019Z,71.20
2019-02-20T17:33:19.653Z,71.30
2019-02-20T17:35:48.287Z,71.30
2019-02-20T17:38:16.969Z,71.40
2019-02-20T17:40:45.619Z,71.10
2019-02-20T17:43:14.247Z,71.30
2019-02-20T17:45:42.915Z,71.40
2019-02-20T17:48:11.483Z,71.10
2019-02-20T17:50:40.135Z,71.30
2019-02-20T17:53:08.692Z,71.30
2019-02-20T17:55:40.252Z,71.10
2019-02-20T17:58:14.768Z,71.20
2019-02-20T18:00:39.310Z,71.50
2019-02-20T18:03:08.021Z,71.50
2019-02-20T18:05:36.736Z,71.30
2019-02-20T18:08:05.577Z,71.40
2019-02-20T18:10:34.163Z,71.60
2019-02-20T18:13:03.046Z,71.80
2019-02-20T18:15:32.774Z,71.80
2019-02-20T18:18:01.442Z,71.70
2019-02-20T18:20:30.049Z,71.90
2019-02-20T18:22:59.963Z,71.70
2019-02-20T18:25:31.404Z,71.80
2019-02-20T18:28:03.135Z,71.70
2019-02-20T18:30:32.631Z,71.60
2019-02-20T18:33:01.413Z,72.00
2019-02-20T18:35:29.978Z,72.10
2019-02-20T18:37:58.629Z,72.10
2019-02-20T18:40:27.254Z,72.40
2019-02-20T18:42:55.961Z,72.30
2019-02-20T18:45:24.661Z,72.60
2019-02-20T18:47:53.275Z,72.40
2019-02-20T18:50:21.954Z,72.40
2019-02-20T18:52:50.548Z,73.00
2019-02-20T18:55:19.170Z,72.70
2019-02-20T18:57:47.700Z,72.50
2019-02-20T19:00:19.320Z,72.30
2019-02-20T19:02:47.984Z,72.10
2019-02-20T19:05:18.641Z,72.60
2019-02-20T19:07:49.026Z,72.30
2019-02-20T19:10:21.145Z,72.40
2019-02-20T19:13:01.924Z,72.90
2019-02-20T19:15:45.124Z,73.00
2019-02-20T19:18:38.601Z,73.50
2019-02-20T19:21:26.640Z,73.70
2019-02-20T19:24:16.236Z,74.20
2019-02-20T19:27:00.284Z,74.30
2019-02-20T19:29:46.608Z,74.30
2019-02-20T19:32:26.702Z,74.40
2019-02-20T19:35:09.829Z,74.60
2019-02-20T19:37:50.397Z,74.90
2019-02-20T19:40:46.493Z,75.10
2019-02-20T19:43:34.451Z,75.30
2019-02-20T19:46:16.394Z,75.50
2019-02-20T19:49:06.274Z,75.80
2019-02-20T19:52:02.100Z,76.10
2019-02-20T19:54:49.117Z,76.20
2019-02-20T19:57:29.523Z,76.70
2019-02-20T20:00:17.490Z,77.10
2019-02-20T20:02:57.753Z,77.10
2019-02-20T20:06:00.861Z,77.10
2019-02-20T20:08:38.194Z,77.10
2019-02-20T20:11:18.219Z,77.50
2019-02-20T20:14:12.095Z,77.70
2019-02-20T20:17:03.689Z,77.90
2019-02-20T20:19:49.791Z,77.80
2019-02-20T20:22:45.001Z,78.30
2019-02-20T20:25:34.106Z,78.50
2019-02-20T20:28:11.436Z,78.50
2019-02-20T20:30:43.132Z,78.20
2019-02-20T20:33:23.762Z,78.30
2019-02-20T20:36:20.729Z,78.40
2019-02-20T20:39:10.106Z,78.30
2019-02-20T20:42:06.981Z,78.10
2019-02-20T20:44:41.190Z,78.40
2019-02-20T20:47:25.260Z,79.00
2019-02-20T20:50:25.370Z,78.90
2019-02-20T20:53:08.853Z,79.30
2019-02-20T20:56:01.529Z,79.20
2019-02-20T20:58:42.101Z,79.20
2019-02-20T21:01:40.958Z,79.40
2019-02-20T21:04:39.679Z,79.40
2019-02-20T21:07:29.267Z,79.80
2019-02-20T21:10:00.869Z,80.10
2019-02-20T21:12:41.186Z,79.90
2019-02-20T21:15:30.414Z,80.00
2019-02-20T21:18:22.793Z,80.30
2019-02-20T21:21:03.074Z,80.60
2019-02-20T21:23:40.121Z,80.90
2019-02-20T21:26:24.672Z,81.00
2019-02-20T21:29:03.433Z,81.40
2019-02-20T21:31:56.027Z,81.40
2019-02-20T21:34:49.515Z,81.60
2019-02-20T21:37:29.861Z,81.40
2019-02-20T21:40:06.343Z,81.30
2019-02-20T21:42:47.946Z,81.20
2019-02-20T21:45:34.416Z,81.00
2019-02-20T21:48:06.298Z,81.20
2019-02-20T21:50:50.093Z,80.80
2019-02-20T21:53:30.512Z,80.60
2019-02-20T21:56:07.612Z,80.80
2019-02-20T21:58:42.098Z,80.50
2019-02-20T22:01:13.733Z,80.60
2019-02-20T22:03:45.384Z,80.60
2019-02-20T22:06:21.733Z,80.70
2019-02-20T22:09:08.261Z,80.80
2019-02-20T22:12:02.609Z,81.00
2019-02-20T22:14:39.421Z,80.70
2019-02-20T22:17:16.606Z,80.80
2019-02-20T22:19:57.024Z,80.80
2019-02-20T22:22:38.283Z,81.00
2019-02-20T22:25:29.058Z,81.00
2019-02-20T22:28:16.905Z,80.80
2019-02-20T22:31:08.118Z,81.30
2019-02-20T22:34:09.560Z,80.90
2019-02-20T22:37:03.539Z,81.10
2019-02-20T22:39:43.858Z,81.60
2019-02-20T22:42:18.869Z,81.50
2019-02-20T22:45:07.119Z,81.40
2019-02-20T22:48:00.848Z,81.30
2019-02-20T22:50:41.541Z,81.30
2019-02-20T22:53:13.155Z,81.40
2019-02-20T22:56:13.009Z,81.00
2019-02-20T22:58:49.994Z,81.10
2019-02-20T23:01:29.953Z,81.90
2019-02-20T23:04:01.566Z,81.10
2019-02-20T23:06:50.822Z,81.00
2019-02-20T23:09:25.236Z,80.90
2019-02-20T23:12:00.632Z,80.90
2019-02-20T23:14:38.101Z,80.90
2019-02-20T23:17:06.832Z,81.20
2019-02-20T23:19:35.466Z,80.90
2019-02-20T23:22:04.643Z,80.70
2019-02-20T23:24:33.344Z,80.80
2019-02-20T23:27:01.900Z,80.90
2019-02-20T23:29:30.457Z,81.10
2019-02-20T23:31:58.994Z,81.10
2019-02-20T23:34:27.647Z,81.10
2019-02-20T23:36:57.190Z,80.70
2019-02-20T23:39:25.729Z,80.80
2019-02-20T23:41:54.349Z,80.90
2019-02-20T23:44:22.982Z,80.90
2019-02-20T23:46:51.580Z,80.90
2019-02-20T23:49:20.140Z,80.90
2019-02-20T23:51:48.740Z,80.80
2019-02-20T23:54:17.275Z,80.80
2019-02-20T23:56:45.865Z,80.60
2019-02-20T23:59:14.426Z,80.60
